sensor_id;sensor_type;location;lat;lon;timestamp;P1;durP1;ratioP1;P2;durP2;ratioP2
27145;SDS011;17980;51.744;7.190;2022-12-11T00:01:21;83.50;;;31.40;;
27145;SDS011;17980;51.744;7.190;2022-12-11T00:03:49;93.90;;;33.43;;
27145;SDS011;17980;51.744;7.190;2022-12-11T00:06:18;82.90;;;31.70;;
27145;SDS011;17980;51.744;7.190;2022-12-11T00:08:49;83.50;;;31.17;;
27145;SDS011;17980;51.744;7.190;2022-12-11T00:11:17;79.20;;;31.17;;
27145;SDS011;17980;51.744;7.190;2022-12-11T00:13:54;78.43;;;31.17;;
27145;SDS011;17980;51.744;7.190;2022-12-11T00:16:21;90.97;;;34.07;;
27145;SDS011;17980;51.744;7.190;2022-12-11T00:18:58;82.63;;;33.30;;
27145;SDS011;17980;51.744;7.190;2022-12-11T00:21:27;77.20;;;30.03;;
27145;SDS011;17980;51.744;7.190;2022-12-11T00:24:07;76.43;;;30.73;;
27145;SDS011;17980;51.744;7.190;2022-12-11T00:26:41;80.83;;;30.50;;
27145;SDS011;17980;51.744;7.190;2022-12-11T00:29:18;81.63;;;29.43;;
27145;SDS011;17980;51.744;7.190;2022-12-11T00:31:47;73.97;;;28.73;;
27145;SDS011;17980;51.744;7.190;2022-12-11T00:34:30;65.03;;;27.17;;
27145;SDS011;17980;51.744;7.190;2022-12-11T00:36:58;70.37;;;29.00;;
27145;SDS011;17980;51.744;7.190;2022-12-11T00:39:25;70.27;;;28.60;;
27145;SDS011;17980;51.744;7.190;2022-12-11T00:41:56;58.90;;;25.70;;
27145;SDS011;17980;51.744;7.190;2022-12-11T00:44:24;67.43;;;25.63;;
27145;SDS011;17980;51.744;7.190;2022-12-11T00:47:13;65.40;;;25.90;;
27145;SDS011;17980;51.744;7.190;2022-12-11T00:49:44;67.53;;;26.07;;
27145;SDS011;17980;51.744;7.190;2022-12-11T00:52:11;65.20;;;26.57;;
27145;SDS011;17980;51.744;7.190;2022-12-11T00:54:48;64.20;;;25.60;;
27145;SDS011;17980;51.744;7.190;2022-12-11T00:57:16;67.03;;;26.57;;
27145;SDS011;17980;51.744;7.190;2022-12-11T00:59:53;69.67;;;25.87;;
27145;SDS011;17980;51.744;7.190;2022-12-11T01:02:20;60.03;;;26.30;;
27145;SDS011;17980;51.744;7.190;2022-12-11T01:05:00;68.23;;;26.80;;
27145;SDS011;17980;51.744;7.190;2022-12-11T01:07:39;72.97;;;26.37;;
27145;SDS011;17980;51.744;7.190;2022-12-11T01:10:16;61.03;;;26.03;;
27145;SDS011;17980;51.744;7.190;2022-12-11T01:12:51;65.93;;;26.40;;
27145;SDS011;17980;51.744;7.190;2022-12-11T01:15:38;65.47;;;26.77;;
27145;SDS011;17980;51.744;7.190;2022-12-11T01:18:19;69.77;;;26.40;;
27145;SDS011;17980;51.744;7.190;2022-12-11T01:20:48;64.87;;;26.07;;
27145;SDS011;17980;51.744;7.190;2022-12-11T01:23:27;62.20;;;25.13;;
27145;SDS011;17980;51.744;7.190;2022-12-11T01:26:06;69.67;;;25.33;;
27145;SDS011;17980;51.744;7.190;2022-12-11T01:28:36;66.50;;;28.37;;
27145;SDS011;17980;51.744;7.190;2022-12-11T01:31:07;76.40;;;28.60;;
27145;SDS011;17980;51.744;7.190;2022-12-11T01:33:36;74.37;;;27.60;;
27145;SDS011;17980;51.744;7.190;2022-12-11T01:36:08;72.93;;;27.63;;
27145;SDS011;17980;51.744;7.190;2022-12-11T01:39:00;71.97;;;26.17;;
27145;SDS011;17980;51.744;7.190;2022-12-11T01:41:32;77.10;;;27.20;;
27145;SDS011;17980;51.744;7.190;2022-12-11T01:44:03;69.50;;;25.63;;
27145;SDS011;17980;51.744;7.190;2022-12-11T01:46:40;68.47;;;25.93;;
27145;SDS011;17980;51.744;7.190;2022-12-11T01:49:12;69.57;;;27.63;;
27145;SDS011;17980;51.744;7.190;2022-12-11T01:51:48;73.10;;;27.83;;
27145;SDS011;17980;51.744;7.190;2022-12-11T01:54:40;81.00;;;28.43;;
27145;SDS011;17980;51.744;7.190;2022-12-11T01:57:16;75.03;;;27.17;;
27145;SDS011;17980;51.744;7.190;2022-12-11T01:59:52;77.10;;;29.07;;
27145;SDS011;17980;51.744;7.190;2022-12-11T02:02:22;85.43;;;28.87;;
27145;SDS011;17980;51.744;7.190;2022-12-11T02:05:03;75.83;;;28.67;;
27145;SDS011;17980;51.744;7.190;2022-12-11T02:07:33;81.97;;;27.23;;
27145;SDS011;17980;51.744;7.190;2022-12-11T02:10:06;77.23;;;27.43;;
27145;SDS011;17980;51.744;7.190;2022-12-11T02:12:38;81.37;;;28.17;;
27145;SDS011;17980;51.744;7.190;2022-12-11T02:15:22;87.87;;;29.20;;
27145;SDS011;17980;51.744;7.190;2022-12-11T02:18:16;74.33;;;27.73;;
27145;SDS011;17980;51.744;7.190;2022-12-11T02:20:57;78.30;;;28.13;;
27145;SDS011;17980;51.744;7.190;2022-12-11T02:26:32;83.80;;;27.37;;
27145;SDS011;17980;51.744;7.190;2022-12-11T02:29:07;81.40;;;26.47;;
27145;SDS011;17980;51.744;7.190;2022-12-11T02:31:46;71.07;;;27.33;;
27145;SDS011;17980;51.744;7.190;2022-12-11T02:34:24;75.00;;;25.70;;
27145;SDS011;17980;51.744;7.190;2022-12-11T02:37:17;80.03;;;28.30;;
27145;SDS011;17980;51.744;7.190;2022-12-11T02:39:50;95.20;;;31.60;;
27145;SDS011;17980;51.744;7.190;2022-12-11T02:42:26;74.40;;;28.57;;
27145;SDS011;17980;51.744;7.190;2022-12-11T02:45:07;86.43;;;29.73;;
27145;SDS011;17980;51.744;7.190;2022-12-11T02:47:37;69.10;;;24.97;;
27145;SDS011;17980;51.744;7.190;2022-12-11T02:50:08;75.17;;;27.10;;
27145;SDS011;17980;51.744;7.190;2022-12-11T02:52:40;88.17;;;28.03;;
27145;SDS011;17980;51.744;7.190;2022-12-11T02:55:26;78.93;;;27.43;;
27145;SDS011;17980;51.744;7.190;2022-12-11T02:58:07;78.07;;;27.40;;
27145;SDS011;17980;51.744;7.190;2022-12-11T03:00:51;86.80;;;30.60;;
27145;SDS011;17980;51.744;7.190;2022-12-11T03:03:20;78.90;;;28.57;;
27145;SDS011;17980;51.744;7.190;2022-12-11T03:05:50;86.93;;;29.30;;
27145;SDS011;17980;51.744;7.190;2022-12-11T03:08:38;71.63;;;25.27;;
27145;SDS011;17980;51.744;7.190;2022-12-11T03:11:10;76.23;;;27.10;;
27145;SDS011;17980;51.744;7.190;2022-12-11T03:13:37;79.20;;;29.00;;
27145;SDS011;17980;51.744;7.190;2022-12-11T03:16:17;77.87;;;28.27;;
27145;SDS011;17980;51.744;7.190;2022-12-11T03:18:51;85.67;;;27.30;;
27145;SDS011;17980;51.744;7.190;2022-12-11T03:21:35;70.90;;;26.70;;
27145;SDS011;17980;51.744;7.190;2022-12-11T03:24:14;71.30;;;26.00;;
27145;SDS011;17980;51.744;7.190;2022-12-11T03:26:49;71.30;;;25.23;;
27145;SDS011;17980;51.744;7.190;2022-12-11T03:29:19;72.30;;;26.73;;
27145;SDS011;17980;51.744;7.190;2022-12-11T03:31:58;76.80;;;26.97;;
27145;SDS011;17980;51.744;7.190;2022-12-11T03:34:29;68.87;;;24.93;;
27145;SDS011;17980;51.744;7.190;2022-12-11T03:37:00;69.87;;;25.50;;
27145;SDS011;17980;51.744;7.190;2022-12-11T03:39:32;72.47;;;27.50;;
27145;SDS011;17980;51.744;7.190;2022-12-11T03:42:02;75.97;;;25.23;;
27145;SDS011;17980;51.744;7.190;2022-12-11T03:44:40;66.90;;;25.90;;
27145;SDS011;17980;51.744;7.190;2022-12-11T03:47:13;65.23;;;25.63;;
27145;SDS011;17980;51.744;7.190;2022-12-11T03:49:51;60.20;;;22.97;;
27145;SDS011;17980;51.744;7.190;2022-12-11T03:52:23;61.70;;;23.10;;
27145;SDS011;17980;51.744;7.190;2022-12-11T03:55:11;60.57;;;23.50;;
27145;SDS011;17980;51.744;7.190;2022-12-11T03:57:44;59.77;;;25.03;;
27145;SDS011;17980;51.744;7.190;2022-12-11T04:00:18;63.30;;;23.90;;
27145;SDS011;17980;51.744;7.190;2022-12-11T04:02:48;55.70;;;24.60;;
27145;SDS011;17980;51.744;7.190;2022-12-11T04:05:28;57.43;;;23.83;;
27145;SDS011;17980;51.744;7.190;2022-12-11T04:08:00;60.10;;;22.20;;
27145;SDS011;17980;51.744;7.190;2022-12-11T04:10:29;58.20;;;24.90;;
27145;SDS011;17980;51.744;7.190;2022-12-11T04:12:56;62.23;;;24.83;;
27145;SDS011;17980;51.744;7.190;2022-12-11T04:15:23;59.73;;;25.17;;
27145;SDS011;17980;51.744;7.190;2022-12-11T04:18:00;54.80;;;22.77;;
27145;SDS011;17980;51.744;7.190;2022-12-11T04:20:45;61.20;;;24.40;;
27145;SDS011;17980;51.744;7.190;2022-12-11T04:23:31;56.13;;;23.03;;
27145;SDS011;17980;51.744;7.190;2022-12-11T04:26:09;50.63;;;19.97;;
27145;SDS011;17980;51.744;7.190;2022-12-11T04:28:39;49.83;;;21.53;;
27145;SDS011;17980;51.744;7.190;2022-12-11T04:31:10;57.50;;;22.23;;
27145;SDS011;17980;51.744;7.190;2022-12-11T04:33:37;53.10;;;22.10;;
27145;SDS011;17980;51.744;7.190;2022-12-11T04:36:05;51.63;;;21.77;;
27145;SDS011;17980;51.744;7.190;2022-12-11T04:38:34;51.93;;;22.17;;
27145;SDS011;17980;51.744;7.190;2022-12-11T04:41:02;51.10;;;21.67;;
27145;SDS011;17980;51.744;7.190;2022-12-11T04:43:39;51.07;;;22.73;;
27145;SDS011;17980;51.744;7.190;2022-12-11T04:46:09;56.50;;;23.17;;
27145;SDS011;17980;51.744;7.190;2022-12-11T04:48:47;49.93;;;21.30;;
27145;SDS011;17980;51.744;7.190;2022-12-11T04:51:15;56.67;;;22.17;;
27145;SDS011;17980;51.744;7.190;2022-12-11T04:53:52;54.87;;;24.23;;
27145;SDS011;17980;51.744;7.190;2022-12-11T04:56:19;59.70;;;24.80;;
27145;SDS011;17980;51.744;7.190;2022-12-11T04:58:56;55.83;;;24.17;;
27145;SDS011;17980;51.744;7.190;2022-12-11T05:01:24;65.30;;;26.33;;
27145;SDS011;17980;51.744;7.190;2022-12-11T05:03:51;63.57;;;26.77;;
27145;SDS011;17980;51.744;7.190;2022-12-11T05:06:28;62.80;;;26.17;;
27145;SDS011;17980;51.744;7.190;2022-12-11T05:08:55;66.53;;;29.43;;
27145;SDS011;17980;51.744;7.190;2022-12-11T05:11:22;64.13;;;28.10;;
27145;SDS011;17980;51.744;7.190;2022-12-11T05:13:50;63.37;;;26.40;;
27145;SDS011;17980;51.744;7.190;2022-12-11T05:16:27;59.23;;;25.90;;
27145;SDS011;17980;51.744;7.190;2022-12-11T05:18:54;67.83;;;27.57;;
27145;SDS011;17980;51.744;7.190;2022-12-11T05:21:22;65.67;;;28.57;;
27145;SDS011;17980;51.744;7.190;2022-12-11T05:23:49;73.53;;;26.97;;
27145;SDS011;17980;51.744;7.190;2022-12-11T05:26:26;67.73;;;26.93;;
27145;SDS011;17980;51.744;7.190;2022-12-11T05:28:53;70.57;;;26.43;;
27145;SDS011;17980;51.744;7.190;2022-12-11T05:31:22;67.00;;;27.60;;
27145;SDS011;17980;51.744;7.190;2022-12-11T05:33:50;63.47;;;26.70;;
27145;SDS011;17980;51.744;7.190;2022-12-11T05:36:19;62.87;;;26.00;;
27145;SDS011;17980;51.744;7.190;2022-12-11T05:38:48;63.53;;;25.53;;
27145;SDS011;17980;51.744;7.190;2022-12-11T05:41:16;69.27;;;28.10;;
27145;SDS011;17980;51.744;7.190;2022-12-11T05:43:54;64.67;;;26.07;;
27145;SDS011;17980;51.744;7.190;2022-12-11T05:46:22;64.10;;;25.93;;
27145;SDS011;17980;51.744;7.190;2022-12-11T05:48:51;66.10;;;27.00;;
27145;SDS011;17980;51.744;7.190;2022-12-11T05:51:20;63.83;;;26.30;;
27145;SDS011;17980;51.744;7.190;2022-12-11T05:53:57;63.97;;;27.77;;
27145;SDS011;17980;51.744;7.190;2022-12-11T05:56:24;62.77;;;25.67;;
27145;SDS011;17980;51.744;7.190;2022-12-11T05:59:03;68.03;;;26.37;;
27145;SDS011;17980;51.744;7.190;2022-12-11T06:01:32;64.43;;;27.33;;
27145;SDS011;17980;51.744;7.190;2022-12-11T06:04:09;66.23;;;25.40;;
27145;SDS011;17980;51.744;7.190;2022-12-11T06:06:38;63.17;;;26.67;;
27145;SDS011;17980;51.744;7.190;2022-12-11T06:09:15;61.50;;;25.93;;
27145;SDS011;17980;51.744;7.190;2022-12-11T06:11:42;66.87;;;26.77;;
27145;SDS011;17980;51.744;7.190;2022-12-11T06:14:10;62.97;;;25.40;;
27145;SDS011;17980;51.744;7.190;2022-12-11T06:16:47;61.17;;;25.23;;
27145;SDS011;17980;51.744;7.190;2022-12-11T06:19:15;68.00;;;26.67;;
27145;SDS011;17980;51.744;7.190;2022-12-11T06:21:43;68.37;;;27.30;;
27145;SDS011;17980;51.744;7.190;2022-12-11T06:24:20;59.17;;;24.30;;
27145;SDS011;17980;51.744;7.190;2022-12-11T06:26:48;56.17;;;24.37;;
27145;SDS011;17980;51.744;7.190;2022-12-11T06:29:24;57.70;;;23.53;;
27145;SDS011;17980;51.744;7.190;2022-12-11T06:31:52;68.77;;;26.67;;
27145;SDS011;17980;51.744;7.190;2022-12-11T06:34:19;57.23;;;24.07;;
27145;SDS011;17980;51.744;7.190;2022-12-11T06:36:56;65.20;;;25.90;;
27145;SDS011;17980;51.744;7.190;2022-12-11T06:39:23;69.53;;;25.17;;
27145;SDS011;17980;51.744;7.190;2022-12-11T06:41:50;66.53;;;27.80;;
27145;SDS011;17980;51.744;7.190;2022-12-11T06:44:17;61.50;;;26.80;;
27145;SDS011;17980;51.744;7.190;2022-12-11T06:46:54;66.37;;;27.83;;
27145;SDS011;17980;51.744;7.190;2022-12-11T06:49:22;66.07;;;28.80;;
27145;SDS011;17980;51.744;7.190;2022-12-11T06:51:49;65.13;;;27.07;;
27145;SDS011;17980;51.744;7.190;2022-12-11T06:54:26;72.43;;;28.00;;
27145;SDS011;17980;51.744;7.190;2022-12-11T06:56:53;73.23;;;28.77;;
27145;SDS011;17980;51.744;7.190;2022-12-11T06:59:20;77.47;;;29.07;;
27145;SDS011;17980;51.744;7.190;2022-12-11T07:01:47;75.70;;;29.60;;
27145;SDS011;17980;51.744;7.190;2022-12-11T07:04:15;77.37;;;29.20;;
27145;SDS011;17980;51.744;7.190;2022-12-11T07:06:42;72.83;;;28.43;;
27145;SDS011;17980;51.744;7.190;2022-12-11T07:09:09;69.67;;;26.97;;
27145;SDS011;17980;51.744;7.190;2022-12-11T07:11:37;74.43;;;29.60;;
27145;SDS011;17980;51.744;7.190;2022-12-11T07:14:23;78.03;;;30.30;;
27145;SDS011;17980;51.744;7.190;2022-12-11T07:16:50;82.03;;;31.13;;
27145;SDS011;17980;51.744;7.190;2022-12-11T07:19:33;75.73;;;31.80;;
27145;SDS011;17980;51.744;7.190;2022-12-11T07:22:00;81.13;;;30.70;;
27145;SDS011;17980;51.744;7.190;2022-12-11T07:24:37;75.07;;;30.57;;
27145;SDS011;17980;51.744;7.190;2022-12-11T07:27:04;80.93;;;31.93;;
27145;SDS011;17980;51.744;7.190;2022-12-11T07:29:31;72.47;;;30.77;;
27145;SDS011;17980;51.744;7.190;2022-12-11T07:31:59;78.20;;;29.73;;
27145;SDS011;17980;51.744;7.190;2022-12-11T07:34:26;84.90;;;32.60;;
27145;SDS011;17980;51.744;7.190;2022-12-11T07:36:53;87.30;;;32.80;;
27145;SDS011;17980;51.744;7.190;2022-12-11T07:39:20;80.97;;;31.83;;
27145;SDS011;17980;51.744;7.190;2022-12-11T07:41:48;74.20;;;32.10;;
27145;SDS011;17980;51.744;7.190;2022-12-11T07:44:24;81.63;;;32.83;;
27145;SDS011;17980;51.744;7.190;2022-12-11T07:46:52;84.67;;;32.53;;
27145;SDS011;17980;51.744;7.190;2022-12-11T07:49:29;79.67;;;31.80;;
27145;SDS011;17980;51.744;7.190;2022-12-11T07:51:56;80.20;;;31.97;;
27145;SDS011;17980;51.744;7.190;2022-12-11T07:54:33;82.87;;;34.27;;
27145;SDS011;17980;51.744;7.190;2022-12-11T07:57:00;76.30;;;31.53;;
27145;SDS011;17980;51.744;7.190;2022-12-11T07:59:38;76.03;;;30.20;;
27145;SDS011;17980;51.744;7.190;2022-12-11T08:02:07;74.83;;;32.47;;
27145;SDS011;17980;51.744;7.190;2022-12-11T08:04:35;64.83;;;29.73;;
27145;SDS011;17980;51.744;7.190;2022-12-11T08:07:12;81.63;;;33.43;;
27145;SDS011;17980;51.744;7.190;2022-12-11T08:09:39;85.70;;;33.20;;
27145;SDS011;17980;51.744;7.190;2022-12-11T08:12:07;83.87;;;32.30;;
27145;SDS011;17980;51.744;7.190;2022-12-11T08:14:34;84.53;;;31.77;;
27145;SDS011;17980;51.744;7.190;2022-12-11T08:17:11;76.40;;;31.53;;
27145;SDS011;17980;51.744;7.190;2022-12-11T08:19:39;83.20;;;32.67;;
27145;SDS011;17980;51.744;7.190;2022-12-11T08:22:16;80.87;;;31.83;;
27145;SDS011;17980;51.744;7.190;2022-12-11T08:24:43;77.83;;;32.70;;
27145;SDS011;17980;51.744;7.190;2022-12-11T08:27:20;75.03;;;31.97;;
27145;SDS011;17980;51.744;7.190;2022-12-11T08:29:47;84.03;;;30.43;;
27145;SDS011;17980;51.744;7.190;2022-12-11T08:32:14;74.23;;;31.10;;
27145;SDS011;17980;51.744;7.190;2022-12-11T08:34:43;76.63;;;30.77;;
27145;SDS011;17980;51.744;7.190;2022-12-11T08:37:19;67.93;;;30.57;;
27145;SDS011;17980;51.744;7.190;2022-12-11T08:39:47;71.47;;;31.47;;
27145;SDS011;17980;51.744;7.190;2022-12-11T08:42:14;73.67;;;31.87;;
27145;SDS011;17980;51.744;7.190;2022-12-11T08:47:17;79.80;;;32.10;;
27145;SDS011;17980;51.744;7.190;2022-12-11T08:49:45;65.57;;;29.33;;
27145;SDS011;17980;51.744;7.190;2022-12-11T08:52:12;76.47;;;31.83;;
27145;SDS011;17980;51.744;7.190;2022-12-11T08:54:39;79.03;;;32.27;;
27145;SDS011;17980;51.744;7.190;2022-12-11T08:57:16;70.67;;;29.70;;
27145;SDS011;17980;51.744;7.190;2022-12-11T08:59:46;70.97;;;29.77;;
27145;SDS011;17980;51.744;7.190;2022-12-11T09:02:14;74.63;;;33.37;;
27145;SDS011;17980;51.744;7.190;2022-12-11T09:04:41;74.60;;;32.37;;
27145;SDS011;17980;51.744;7.190;2022-12-11T09:07:08;85.23;;;34.77;;
27145;SDS011;17980;51.744;7.190;2022-12-11T09:09:37;74.07;;;33.37;;
27145;SDS011;17980;51.744;7.190;2022-12-11T09:12:04;73.10;;;30.70;;
27145;SDS011;17980;51.744;7.190;2022-12-11T09:14:39;75.67;;;32.10;;
27145;SDS011;17980;51.744;7.190;2022-12-11T09:17:15;73.07;;;30.83;;
27145;SDS011;17980;51.744;7.190;2022-12-11T09:19:43;73.50;;;29.80;;
27145;SDS011;17980;51.744;7.190;2022-12-11T09:22:10;71.83;;;31.23;;
27145;SDS011;17980;51.744;7.190;2022-12-11T09:24:47;63.17;;;28.93;;
27145;SDS011;17980;51.744;7.190;2022-12-11T09:27:15;67.73;;;29.90;;
27145;SDS011;17980;51.744;7.190;2022-12-11T09:29:53;62.97;;;29.10;;
27145;SDS011;17980;51.744;7.190;2022-12-11T09:32:20;67.20;;;30.17;;
27145;SDS011;17980;51.744;7.190;2022-12-11T09:34:51;72.63;;;32.23;;
27145;SDS011;17980;51.744;7.190;2022-12-11T09:37:28;69.43;;;30.73;;
27145;SDS011;17980;51.744;7.190;2022-12-11T09:39:56;67.67;;;31.20;;
27145;SDS011;17980;51.744;7.190;2022-12-11T09:42:24;72.17;;;30.77;;
27145;SDS011;17980;51.744;7.190;2022-12-11T09:44:54;70.47;;;30.73;;
27145;SDS011;17980;51.744;7.190;2022-12-11T09:47:34;63.47;;;29.30;;
27145;SDS011;17980;51.744;7.190;2022-12-11T09:50:05;68.10;;;31.43;;
27145;SDS011;17980;51.744;7.190;2022-12-11T09:52:49;62.13;;;30.37;;
27145;SDS011;17980;51.744;7.190;2022-12-11T09:58:03;73.87;;;31.63;;
27145;SDS011;17980;51.744;7.190;2022-12-11T10:00:35;68.73;;;31.60;;
27145;SDS011;17980;51.744;7.190;2022-12-11T10:03:13;78.10;;;33.40;;
27145;SDS011;17980;51.744;7.190;2022-12-11T10:06:02;71.30;;;30.73;;
27145;SDS011;17980;51.744;7.190;2022-12-11T10:08:35;70.60;;;30.93;;
27145;SDS011;17980;51.744;7.190;2022-12-11T10:11:32;74.57;;;31.50;;
27145;SDS011;17980;51.744;7.190;2022-12-11T10:14:09;68.90;;;30.27;;
27145;SDS011;17980;51.744;7.190;2022-12-11T10:16:55;63.23;;;28.40;;
27145;SDS011;17980;51.744;7.190;2022-12-11T10:19:25;65.40;;;30.00;;
27145;SDS011;17980;51.744;7.190;2022-12-11T10:21:55;61.60;;;28.03;;
27145;SDS011;17980;51.744;7.190;2022-12-11T10:24:26;66.33;;;30.00;;
27145;SDS011;17980;51.744;7.190;2022-12-11T10:27:11;63.33;;;28.67;;
27145;SDS011;17980;51.744;7.190;2022-12-11T10:29:44;55.23;;;26.00;;
27145;SDS011;17980;51.744;7.190;2022-12-11T10:32:14;54.47;;;25.80;;
27145;SDS011;17980;51.744;7.190;2022-12-11T10:34:49;55.20;;;27.20;;
27145;SDS011;17980;51.744;7.190;2022-12-11T10:37:20;50.70;;;25.23;;
27145;SDS011;17980;51.744;7.190;2022-12-11T10:39:48;50.90;;;25.23;;
27145;SDS011;17980;51.744;7.190;2022-12-11T10:42:25;62.83;;;24.87;;
27145;SDS011;17980;51.744;7.190;2022-12-11T10:44:58;54.83;;;25.60;;
27145;SDS011;17980;51.744;7.190;2022-12-11T10:47:36;52.40;;;26.33;;
27145;SDS011;17980;51.744;7.190;2022-12-11T10:50:05;49.27;;;25.10;;
27145;SDS011;17980;51.744;7.190;2022-12-11T10:52:34;54.60;;;26.73;;
27145;SDS011;17980;51.744;7.190;2022-12-11T10:55:16;55.50;;;26.60;;
27145;SDS011;17980;51.744;7.190;2022-12-11T10:57:52;51.07;;;26.40;;
27145;SDS011;17980;51.744;7.190;2022-12-11T11:00:30;58.83;;;27.37;;
27145;SDS011;17980;51.744;7.190;2022-12-11T11:03:19;55.40;;;28.23;;
27145;SDS011;17980;51.744;7.190;2022-12-11T11:05:48;55.43;;;27.33;;
27145;SDS011;17980;51.744;7.190;2022-12-11T11:08:18;56.97;;;28.73;;
27145;SDS011;17980;51.744;7.190;2022-12-11T11:10:54;56.10;;;28.13;;
27145;SDS011;17980;51.744;7.190;2022-12-11T11:13:23;49.13;;;26.63;;
27145;SDS011;17980;51.744;7.190;2022-12-11T11:15:57;51.73;;;27.40;;
27145;SDS011;17980;51.744;7.190;2022-12-11T11:18:35;52.07;;;28.13;;
27145;SDS011;17980;51.744;7.190;2022-12-11T11:21:04;49.97;;;26.20;;
27145;SDS011;17980;51.744;7.190;2022-12-11T11:23:41;51.90;;;28.50;;
27145;SDS011;17980;51.744;7.190;2022-12-11T11:26:09;47.47;;;25.47;;
27145;SDS011;17980;51.744;7.190;2022-12-11T11:28:38;51.93;;;26.97;;
27145;SDS011;17980;51.744;7.190;2022-12-11T11:31:09;48.70;;;27.07;;
27145;SDS011;17980;51.744;7.190;2022-12-11T11:33:44;48.20;;;28.63;;
27145;SDS011;17980;51.744;7.190;2022-12-11T11:36:29;52.93;;;28.33;;
27145;SDS011;17980;51.744;7.190;2022-12-11T11:39:02;50.27;;;29.13;;
27145;SDS011;17980;51.744;7.190;2022-12-11T11:41:42;52.60;;;27.90;;
27145;SDS011;17980;51.744;7.190;2022-12-11T11:44:12;51.30;;;27.77;;
27145;SDS011;17980;51.744;7.190;2022-12-11T11:46:43;45.70;;;25.30;;
27145;SDS011;17980;51.744;7.190;2022-12-11T11:49:24;53.90;;;28.83;;
27145;SDS011;17980;51.744;7.190;2022-12-11T11:51:56;45.00;;;26.47;;
27145;SDS011;17980;51.744;7.190;2022-12-11T11:54:41;49.13;;;28.30;;
27145;SDS011;17980;51.744;7.190;2022-12-11T11:57:12;52.03;;;28.67;;
27145;SDS011;17980;51.744;7.190;2022-12-11T11:59:45;48.37;;;27.27;;
27145;SDS011;17980;51.744;7.190;2022-12-11T12:02:23;51.50;;;27.23;;
27145;SDS011;17980;51.744;7.190;2022-12-11T12:04:50;53.10;;;28.50;;
27145;SDS011;17980;51.744;7.190;2022-12-11T12:07:30;53.37;;;29.37;;
27145;SDS011;17980;51.744;7.190;2022-12-11T12:10:02;45.70;;;26.93;;
27145;SDS011;17980;51.744;7.190;2022-12-11T12:12:36;52.70;;;28.47;;
27145;SDS011;17980;51.744;7.190;2022-12-11T12:17:52;53.80;;;29.40;;
27145;SDS011;17980;51.744;7.190;2022-12-11T12:20:25;52.03;;;29.20;;
27145;SDS011;17980;51.744;7.190;2022-12-11T12:23:02;52.47;;;29.63;;
27145;SDS011;17980;51.744;7.190;2022-12-11T12:25:43;54.17;;;30.20;;
27145;SDS011;17980;51.744;7.190;2022-12-11T12:28:17;53.73;;;29.73;;
27145;SDS011;17980;51.744;7.190;2022-12-11T12:30:58;51.70;;;28.03;;
27145;SDS011;17980;51.744;7.190;2022-12-11T12:33:33;51.30;;;29.67;;
27145;SDS011;17980;51.744;7.190;2022-12-11T12:36:16;52.63;;;28.83;;
27145;SDS011;17980;51.744;7.190;2022-12-11T12:38:50;51.57;;;29.17;;
27145;SDS011;17980;51.744;7.190;2022-12-11T12:41:30;49.83;;;28.33;;
27145;SDS011;17980;51.744;7.190;2022-12-11T12:44:08;50.17;;;27.63;;
27145;SDS011;17980;51.744;7.190;2022-12-11T12:46:51;47.77;;;25.83;;
27145;SDS011;17980;51.744;7.190;2022-12-11T12:52:27;52.97;;;27.40;;
27145;SDS011;17980;51.744;7.190;2022-12-11T12:54:57;48.67;;;27.57;;
27145;SDS011;17980;51.744;7.190;2022-12-11T13:00:27;48.57;;;25.70;;
27145;SDS011;17980;51.744;7.190;2022-12-11T13:02:57;46.40;;;26.13;;
27145;SDS011;17980;51.744;7.190;2022-12-11T13:05:34;51.30;;;26.63;;
27145;SDS011;17980;51.744;7.190;2022-12-11T13:08:03;42.97;;;24.93;;
27145;SDS011;17980;51.744;7.190;2022-12-11T13:10:41;41.40;;;24.90;;
27145;SDS011;17980;51.744;7.190;2022-12-11T13:13:28;45.07;;;25.63;;
27145;SDS011;17980;51.744;7.190;2022-12-11T13:16:22;49.07;;;26.57;;
27145;SDS011;17980;51.744;7.190;2022-12-11T13:18:51;39.33;;;24.70;;
27145;SDS011;17980;51.744;7.190;2022-12-11T13:21:25;40.97;;;23.50;;
27145;SDS011;17980;51.744;7.190;2022-12-11T13:24:16;45.17;;;24.57;;
27145;SDS011;17980;51.744;7.190;2022-12-11T13:26:50;42.47;;;24.17;;
27145;SDS011;17980;51.744;7.190;2022-12-11T13:29:27;43.27;;;24.33;;
27145;SDS011;17980;51.744;7.190;2022-12-11T13:32:18;49.90;;;31.07;;
27145;SDS011;17980;51.744;7.190;2022-12-11T13:34:51;44.67;;;25.70;;
27145;SDS011;17980;51.744;7.190;2022-12-11T13:37:30;49.77;;;26.93;;
27145;SDS011;17980;51.744;7.190;2022-12-11T13:40:00;43.67;;;25.77;;
27145;SDS011;17980;51.744;7.190;2022-12-11T13:42:39;43.67;;;26.03;;
27145;SDS011;17980;51.744;7.190;2022-12-11T13:45:16;74.53;;;47.87;;
27145;SDS011;17980;51.744;7.190;2022-12-11T13:47:54;48.87;;;25.77;;
27145;SDS011;17980;51.744;7.190;2022-12-11T13:50:23;53.03;;;34.47;;
27145;SDS011;17980;51.744;7.190;2022-12-11T13:52:53;46.63;;;25.77;;
27145;SDS011;17980;51.744;7.190;2022-12-11T13:55:23;47.33;;;26.40;;
27145;SDS011;17980;51.744;7.190;2022-12-11T13:58:01;48.43;;;26.10;;
27145;SDS011;17980;51.744;7.190;2022-12-11T14:00:29;51.30;;;27.17;;
27145;SDS011;17980;51.744;7.190;2022-12-11T14:02:57;54.93;;;28.27;;
27145;SDS011;17980;51.744;7.190;2022-12-11T14:05:28;46.40;;;26.47;;
27145;SDS011;17980;51.744;7.190;2022-12-11T14:08:06;45.70;;;25.40;;
27145;SDS011;17980;51.744;7.190;2022-12-11T14:13:13;48.10;;;27.10;;
27145;SDS011;17980;51.744;7.190;2022-12-11T14:15:42;44.77;;;25.63;;
27145;SDS011;17980;51.744;7.190;2022-12-11T14:18:20;51.37;;;28.07;;
27145;SDS011;17980;51.744;7.190;2022-12-11T14:20:53;46.13;;;26.03;;
27145;SDS011;17980;51.744;7.190;2022-12-11T14:23:23;49.87;;;27.17;;
27145;SDS011;17980;51.744;7.190;2022-12-11T14:26:00;46.13;;;27.00;;
27145;SDS011;17980;51.744;7.190;2022-12-11T14:28:34;43.10;;;25.50;;
27145;SDS011;17980;51.744;7.190;2022-12-11T14:31:03;45.90;;;27.60;;
27145;SDS011;17980;51.744;7.190;2022-12-11T14:33:32;47.83;;;28.13;;
27145;SDS011;17980;51.744;7.190;2022-12-11T14:36:10;49.43;;;28.23;;
27145;SDS011;17980;51.744;7.190;2022-12-11T14:38:41;50.10;;;28.63;;
27145;SDS011;17980;51.744;7.190;2022-12-11T14:41:18;47.00;;;26.47;;
27145;SDS011;17980;51.744;7.190;2022-12-11T14:43:49;50.30;;;28.37;;
27145;SDS011;17980;51.744;7.190;2022-12-11T14:46:29;49.27;;;26.80;;
27145;SDS011;17980;51.744;7.190;2022-12-11T14:48:59;44.07;;;25.37;;
27145;SDS011;17980;51.744;7.190;2022-12-11T14:51:32;49.23;;;28.00;;
27145;SDS011;17980;51.744;7.190;2022-12-11T14:54:11;55.77;;;29.17;;
27145;SDS011;17980;51.744;7.190;2022-12-11T14:56:42;42.40;;;24.63;;
27145;SDS011;17980;51.744;7.190;2022-12-11T14:59:14;47.27;;;26.67;;
27145;SDS011;17980;51.744;7.190;2022-12-11T15:01:57;45.87;;;25.97;;
27145;SDS011;17980;51.744;7.190;2022-12-11T15:04:29;40.47;;;24.87;;
27145;SDS011;17980;51.744;7.190;2022-12-11T15:07:15;49.73;;;27.37;;
27145;SDS011;17980;51.744;7.190;2022-12-11T15:09:45;52.47;;;29.20;;
27145;SDS011;17980;51.744;7.190;2022-12-11T15:12:15;46.17;;;27.63;;
27145;SDS011;17980;51.744;7.190;2022-12-11T15:14:46;48.53;;;28.03;;
27145;SDS011;17980;51.744;7.190;2022-12-11T15:17:24;45.33;;;25.80;;